Terminal Aerodrome Forecast
Issued by NWS Corpus Christi, TX

Current Version | Previous Version | Text Only | Print | Product List | Glossary On
Versions: 1 2 3 4 5 6 7 8 9 10 11 12 13 14
666
FTUS44 KCRP 260025 AAA
TAFCRP
TAF AMD
KCRP 260025Z 2600/2624 14015KT P6SM VCSH SCT040 BKN250
     FM260400 02012G18KT P6SM VCSH SCT025 BKN035
      TEMPO 2605/2608 6SM SHRA BR BKN025
     FM261100 03015KT P6SM OVC050
     FM261600 09010KT P6SM BKN040=

USA.gov is the U.S. government's official web portal to all federal, state and local government web resources and services.